createdAt,value
2022-11-20T00:01:30.061Z,19.08
2022-11-20T00:03:59.160Z,18.85
2022-11-20T00:06:28.079Z,19.52
2022-11-20T00:08:57.709Z,17.30
2022-11-20T00:11:27.285Z,19.15
2022-11-20T00:13:58.155Z,18.70
2022-11-20T00:16:27.184Z,19.25
2022-11-20T00:18:55.291Z,19.42
2022-11-20T00:21:27.669Z,18.77
2022-11-20T00:23:56.529Z,19.33
2022-11-20T00:26:26.543Z,20.10
2022-11-20T00:28:58.958Z,19.67
2022-11-20T00:31:26.625Z,19.48
2022-11-20T00:33:53.732Z,19.38
2022-11-20T00:36:23.204Z,17.95
2022-11-20T00:38:57.968Z,18.60
2022-11-20T00:41:26.975Z,19.05
2022-11-20T00:43:55.282Z,20.38
2022-11-20T00:46:27.302Z,19.10
2022-11-20T00:48:54.800Z,18.90
2022-11-20T00:51:25.268Z,19.17
2022-11-20T00:53:59.135Z,18.27
2022-11-20T00:56:26.356Z,18.63
2022-11-20T00:58:53.666Z,18.27
2022-11-20T01:01:26.791Z,18.40
2022-11-20T01:03:55.691Z,19.25
2022-11-20T01:06:37.572Z,18.55
2022-11-20T01:09:08.142Z,17.73
2022-11-20T01:11:38.409Z,19.50
2022-11-20T01:14:08.181Z,19.70
2022-11-20T01:16:38.411Z,18.17
2022-11-20T01:19:07.955Z,18.52
2022-11-20T01:21:38.389Z,18.27
2022-11-20T01:24:08.966Z,18.60
2022-11-20T01:26:38.461Z,20.50
2022-11-20T01:29:07.698Z,17.80
2022-11-20T01:31:37.544Z,20.02
2022-11-20T01:34:16.538Z,19.23
2022-11-20T01:36:44.299Z,19.05
2022-11-20T01:39:15.217Z,17.70
2022-11-20T01:42:05.705Z,19.15
2022-11-20T01:44:58.439Z,17.90
2022-11-20T01:47:37.528Z,17.77
2022-11-20T01:50:26.657Z,18.27
2022-11-20T01:52:58.401Z,19.45
2022-11-20T01:55:30.129Z,19.30
2022-11-20T01:57:57.808Z,19.15
2022-11-20T02:00:25.680Z,18.83
2022-11-20T02:02:59.639Z,18.23
2022-11-20T02:05:35.269Z,17.88
2022-11-20T02:08:09.033Z,19.80
2022-11-20T02:10:36.360Z,17.05
2022-11-20T02:13:22.550Z,18.30
2022-11-20T02:15:50.169Z,18.88
2022-11-20T02:18:19.820Z,17.50
2022-11-20T02:20:49.502Z,19.25
2022-11-20T02:24:01.028Z,18.25
2022-11-20T02:26:30.998Z,17.42
2022-11-20T02:29:00.041Z,19.25
2022-11-20T02:31:29.057Z,19.00
2022-11-20T02:33:58.025Z,20.02
2022-11-20T02:36:28.283Z,19.48
2022-11-20T02:38:55.617Z,20.17
2022-11-20T02:41:23.304Z,20.08
2022-11-20T02:43:50.239Z,19.83
2022-11-20T02:46:17.305Z,19.48
2022-11-20T02:48:44.205Z,20.77
2022-11-20T02:51:11.353Z,19.67
2022-11-20T02:53:38.298Z,20.08
2022-11-20T02:56:05.853Z,19.90
2022-11-20T02:58:33.305Z,20.00
2022-11-20T03:01:00.625Z,19.90
2022-11-20T03:03:27.591Z,20.77
2022-11-20T03:05:54.563Z,20.73
2022-11-20T03:08:21.443Z,20.35
2022-11-20T03:10:48.700Z,20.58
2022-11-20T03:13:17.062Z,21.98
2022-11-20T03:15:43.882Z,20.70
2022-11-20T03:18:11.080Z,21.08
2022-11-20T03:20:37.981Z,22.40
2022-11-20T03:23:04.874Z,21.92
2022-11-20T03:25:32.221Z,22.08
2022-11-20T03:27:59.353Z,22.77
2022-11-20T03:30:30.494Z,23.58
2022-11-20T03:32:58.058Z,22.85
2022-11-20T03:35:25.207Z,23.13
2022-11-20T03:37:52.342Z,23.60
2022-11-20T03:40:19.454Z,23.75
2022-11-20T03:42:46.528Z,25.75
2022-11-20T03:45:18.187Z,24.92
2022-11-20T03:47:46.364Z,24.20
2022-11-20T03:50:15.045Z,23.35
2022-11-20T03:52:42.193Z,26.10
2022-11-20T03:55:09.871Z,24.65
2022-11-20T03:57:37.054Z,27.02
2022-11-20T04:00:05.928Z,25.95
2022-11-20T04:02:33.002Z,26.00
2022-11-20T04:05:00.175Z,26.17
2022-11-20T04:07:30.946Z,26.92
2022-11-20T04:09:58.574Z,25.83
2022-11-20T04:12:25.405Z,25.42
2022-11-20T04:14:52.886Z,27.85
2022-11-20T04:17:19.709Z,25.00
2022-11-20T04:19:46.764Z,26.52
2022-11-20T04:22:14.313Z,25.63
2022-11-20T04:24:41.155Z,26.20
2022-11-20T04:27:08.336Z,27.25
2022-11-20T04:29:35.349Z,27.08
2022-11-20T04:32:02.496Z,27.05
2022-11-20T04:34:29.695Z,27.88
2022-11-20T04:36:56.622Z,25.92
2022-11-20T04:39:24.059Z,28.17
2022-11-20T04:42:11.331Z,28.05
2022-11-20T04:44:38.232Z,27.25
2022-11-20T04:47:08.572Z,28.95
2022-11-20T04:49:36.701Z,28.88
2022-11-20T04:52:03.991Z,29.08
2022-11-20T04:54:30.866Z,29.63
2022-11-20T04:56:57.761Z,30.90
2022-11-20T04:59:24.850Z,31.25
2022-11-20T05:01:52.723Z,27.35
2022-11-20T05:04:19.825Z,28.13
2022-11-20T05:06:46.791Z,29.05
2022-11-20T05:09:14.179Z,29.10
2022-11-20T05:11:41.118Z,30.52
2022-11-20T05:14:08.177Z,30.55
2022-11-20T05:16:36.571Z,31.08
2022-11-20T05:19:03.748Z,29.02
2022-11-20T05:21:32.906Z,29.00
2022-11-20T05:24:00.073Z,30.88
2022-11-20T05:26:26.909Z,31.55
2022-11-20T05:28:54.272Z,30.02
2022-11-20T05:31:27.684Z,29.85
2022-11-20T05:33:56.761Z,30.73
2022-11-20T05:36:24.253Z,30.73
2022-11-20T05:38:51.941Z,30.10
2022-11-20T05:41:22.011Z,30.60
2022-11-20T05:43:50.916Z,30.60
2022-11-20T05:46:27.865Z,28.88
2022-11-20T05:48:57.072Z,30.38
2022-11-20T05:51:24.509Z,29.02
2022-11-20T05:53:51.430Z,28.13
2022-11-20T05:56:20.934Z,28.02
2022-11-20T05:58:49.073Z,28.23
2022-11-20T06:01:17.546Z,28.00
2022-11-20T06:03:47.535Z,28.60
2022-11-20T06:06:16.293Z,27.92
2022-11-20T06:08:43.319Z,26.80
2022-11-20T06:11:14.486Z,27.05
2022-11-20T06:13:42.747Z,28.13
2022-11-20T06:16:11.477Z,25.83
2022-11-20T06:18:39.196Z,28.55
2022-11-20T06:21:11.774Z,27.83
2022-11-20T06:23:39.459Z,27.33
2022-11-20T06:26:09.266Z,26.88
2022-11-20T06:28:36.517Z,26.40
2022-11-20T06:31:04.089Z,26.67
2022-11-20T06:33:31.169Z,27.33
2022-11-20T06:36:07.252Z,26.73
2022-11-20T06:38:37.481Z,26.17
2022-11-20T06:41:06.422Z,26.20
2022-11-20T06:43:33.537Z,27.27
2022-11-20T06:46:00.752Z,27.10
2022-11-20T06:48:30.865Z,26.70
2022-11-20T06:50:59.006Z,26.45
2022-11-20T06:53:26.416Z,25.98
2022-11-20T06:55:53.619Z,26.50
2022-11-20T06:58:20.666Z,25.58
2022-11-20T07:00:47.741Z,26.15
2022-11-20T07:03:14.853Z,26.13
2022-11-20T07:05:41.808Z,25.85
2022-11-20T07:08:09.704Z,26.88
2022-11-20T07:10:36.912Z,29.45
2022-11-20T07:13:03.818Z,29.23
2022-11-20T07:15:31.559Z,26.77
2022-11-20T07:18:01.671Z,27.63
2022-11-20T07:20:29.137Z,24.75
2022-11-20T07:23:00.048Z,26.50
2022-11-20T07:25:28.398Z,26.85
2022-11-20T07:27:59.668Z,25.33
2022-11-20T07:30:29.278Z,27.10
2022-11-20T07:32:57.534Z,25.13
2022-11-20T07:35:25.771Z,25.48
2022-11-20T07:37:53.065Z,25.67
2022-11-20T07:40:20.947Z,24.20
2022-11-20T07:42:51.606Z,25.05
2022-11-20T07:45:19.747Z,25.88
2022-11-20T07:47:46.932Z,24.38
2022-11-20T07:50:14.616Z,23.48
2022-11-20T07:52:42.096Z,24.33
2022-11-20T07:55:12.645Z,23.23
2022-11-20T07:57:39.803Z,22.10
2022-11-20T08:00:11.578Z,27.70
2022-11-20T08:02:42.513Z,23.55
2022-11-20T08:05:11.149Z,25.13
2022-11-20T08:07:39.825Z,23.58
2022-11-20T08:10:08.307Z,22.75
2022-11-20T08:12:54.027Z,24.23
2022-11-20T08:15:21.286Z,23.95
2022-11-20T08:18:08.346Z,24.50
2022-11-20T08:20:36.380Z,24.67
2022-11-20T08:23:07.933Z,23.52
2022-11-20T08:25:36.900Z,26.10
2022-11-20T08:28:18.770Z,25.83
2022-11-20T08:30:48.084Z,24.20
2022-11-20T08:34:09.233Z,26.20
2022-11-20T08:41:34.948Z,24.30
2022-11-20T08:48:08.383Z,23.50
2022-11-20T08:50:35.316Z,23.35
2022-11-20T08:53:06.091Z,22.52
2022-11-20T08:55:33.534Z,24.23
2022-11-20T08:58:07.431Z,24.23
2022-11-20T09:00:35.222Z,23.58
2022-11-20T09:03:03.789Z,23.05
2022-11-20T09:05:30.906Z,23.85
2022-11-20T09:07:59.297Z,25.17
2022-11-20T09:10:27.342Z,25.55
2022-11-20T09:12:56.192Z,25.65
2022-11-20T09:15:24.741Z,24.42
2022-11-20T09:17:55.716Z,22.80
2022-11-20T09:20:22.760Z,22.80
2022-11-20T09:22:49.963Z,24.13
2022-11-20T09:25:17.402Z,25.58
2022-11-20T09:27:46.705Z,25.77
2022-11-20T09:30:17.255Z,26.95
2022-11-20T09:32:44.478Z,27.98
2022-11-20T09:35:12.050Z,26.30
2022-11-20T09:37:39.238Z,26.88
2022-11-20T09:40:07.388Z,26.63
2022-11-20T09:42:46.147Z,26.50
2022-11-20T09:45:31.382Z,25.33
2022-11-20T09:48:37.606Z,27.23
2022-11-20T09:51:16.863Z,23.92
2022-11-20T09:54:31.337Z,26.52
2022-11-20T09:57:03.038Z,24.13
2022-11-20T09:59:41.762Z,24.83
2022-11-20T10:02:49.662Z,24.90
2022-11-20T10:05:34.983Z,25.70
2022-11-20T10:08:15.871Z,25.92
2022-11-20T10:10:54.175Z,24.98
2022-11-20T10:13:39.795Z,24.30
2022-11-20T10:16:27.723Z,27.08
2022-11-20T10:19:13.545Z,26.95
2022-11-20T10:22:03.372Z,26.23
2022-11-20T10:24:47.908Z,24.17
2022-11-20T10:27:32.762Z,22.33
2022-11-20T10:30:05.221Z,22.30
2022-11-20T10:32:48.202Z,23.05
2022-11-20T10:35:20.148Z,21.30
2022-11-20T10:37:52.290Z,20.90
2022-11-20T10:42:57.153Z,19.92
2022-11-20T10:45:28.229Z,17.20
2022-11-20T10:48:23.220Z,17.45
2022-11-20T10:51:04.168Z,16.77
2022-11-20T10:53:47.343Z,17.00
2022-11-20T10:56:46.875Z,16.05
2022-11-20T10:59:47.211Z,16.40
2022-11-20T11:02:23.034Z,14.23
2022-11-20T11:04:56.100Z,13.45
2022-11-20T11:07:31.860Z,14.10
2022-11-20T11:09:59.580Z,13.10
2022-11-20T11:13:01.514Z,13.07
2022-11-20T11:25:30.820Z,7.88
2022-11-20T11:28:00.620Z,6.55
2022-11-20T11:30:31.328Z,7.45
2022-11-20T11:33:11.454Z,6.28
2022-11-20T11:35:53.777Z,5.60
2022-11-20T11:38:39.099Z,5.53
2022-11-20T11:41:08.679Z,4.97
2022-11-20T11:43:56.742Z,5.30
2022-11-20T11:46:33.685Z,5.78
2022-11-20T11:49:12.860Z,5.00
2022-11-20T11:52:05.635Z,4.53
2022-11-20T11:54:53.749Z,3.80
2022-11-20T11:57:59.325Z,3.90
2022-11-20T12:00:26.885Z,3.17
2022-11-20T12:03:16.839Z,2.80
2022-11-20T12:05:49.483Z,2.65
2022-11-20T12:08:40.002Z,2.83
2022-11-20T12:11:31.948Z,2.85
2022-11-20T12:14:17.082Z,2.30
2022-11-20T12:16:43.992Z,2.83
2022-11-20T12:19:15.073Z,2.03
2022-11-20T12:22:04.887Z,2.40
2022-11-20T12:24:53.516Z,1.60
2022-11-20T12:27:47.293Z,2.05
2022-11-20T12:30:21.937Z,1.90
2022-11-20T12:33:09.956Z,2.10
2022-11-20T12:36:03.086Z,1.70
2022-11-20T12:38:59.861Z,1.58
2022-11-20T12:42:06.966Z,1.48
2022-11-20T12:45:10.950Z,1.40
2022-11-20T12:47:50.187Z,1.95
2022-11-20T12:50:38.782Z,1.50
2022-11-20T12:53:36.694Z,1.38
2022-11-20T12:56:24.988Z,1.13
2022-11-20T12:59:13.425Z,1.27
2022-11-20T13:01:51.703Z,1.63
2022-11-20T13:04:37.112Z,1.20
2022-11-20T13:07:09.037Z,1.38
2022-11-20T13:09:44.005Z,1.10
2022-11-20T13:12:37.898Z,1.50
2022-11-20T13:15:08.099Z,2.25
2022-11-20T13:18:02.552Z,1.70
2022-11-20T13:20:32.197Z,1.73
2022-11-20T13:22:59.923Z,1.40
2022-11-20T13:25:36.212Z,1.48
2022-11-20T13:28:12.378Z,1.40
2022-11-20T13:30:54.456Z,1.35
2022-11-20T13:33:31.931Z,1.58
2022-11-20T13:36:23.075Z,1.30
2022-11-20T13:38:52.216Z,2.22
2022-11-20T13:41:38.838Z,1.92
2022-11-20T13:44:15.877Z,1.67
2022-11-20T13:46:46.267Z,1.60
2022-11-20T13:49:45.137Z,1.50
2022-11-20T13:52:37.203Z,1.65
2022-11-20T13:55:37.031Z,2.17
2022-11-20T13:58:32.956Z,2.13
2022-11-20T14:01:09.478Z,1.80
2022-11-20T14:04:04.618Z,1.65
2022-11-20T14:06:33.838Z,1.52
2022-11-20T14:09:01.352Z,1.95
2022-11-20T14:11:31.111Z,1.75
2022-11-20T14:14:15.033Z,2.17
2022-11-20T14:16:42.058Z,1.80
2022-11-20T14:19:21.392Z,1.80
2022-11-20T14:21:50.448Z,1.40
2022-11-20T14:24:25.348Z,1.73
2022-11-20T14:26:53.748Z,1.80
2022-11-20T14:29:25.175Z,1.45
2022-11-20T14:31:55.558Z,1.67
2022-11-20T14:34:38.275Z,1.70
2022-11-20T14:37:16.605Z,1.48
2022-11-20T14:39:51.671Z,1.58
2022-11-20T14:42:29.461Z,2.10
2022-11-20T14:45:01.050Z,2.22
2022-11-20T14:47:31.207Z,2.17
2022-11-20T14:49:59.573Z,2.00
2022-11-20T14:52:28.227Z,2.10
2022-11-20T14:55:02.538Z,2.15
2022-11-20T14:57:35.172Z,2.50
2022-11-20T15:00:22.379Z,2.10
2022-11-20T15:02:51.421Z,1.85
2022-11-20T15:05:20.897Z,1.80
2022-11-20T15:07:50.980Z,1.95
2022-11-20T15:10:27.527Z,1.85
2022-11-20T15:12:57.977Z,1.70
2022-11-20T15:15:37.280Z,1.83
2022-11-20T15:18:04.970Z,1.75
2022-11-20T15:20:34.145Z,2.15
2022-11-20T15:23:01.309Z,1.70
2022-11-20T15:25:29.237Z,1.42
2022-11-20T15:27:57.786Z,1.23
2022-11-20T15:30:25.835Z,1.10
2022-11-20T15:32:53.087Z,1.92
2022-11-20T15:35:20.093Z,1.80
2022-11-20T15:37:47.286Z,1.50
2022-11-20T15:40:14.438Z,1.45
2022-11-20T15:43:01.376Z,1.50
2022-11-20T15:45:30.542Z,1.45
2022-11-20T15:47:57.975Z,1.40
2022-11-20T15:50:32.209Z,1.10
2022-11-20T15:52:59.178Z,1.50
2022-11-20T15:55:26.461Z,1.60
2022-11-20T15:57:53.365Z,1.98
2022-11-20T16:00:23.796Z,1.70
2022-11-20T16:02:51.448Z,1.60
2022-11-20T16:05:18.673Z,1.65
2022-11-20T16:07:45.848Z,1.70
2022-11-20T16:10:13.292Z,2.00
2022-11-20T16:12:58.979Z,1.65
2022-11-20T16:15:44.524Z,1.90
2022-11-20T16:18:13.234Z,2.40
2022-11-20T16:20:40.550Z,2.20
2022-11-20T16:23:08.284Z,2.30
2022-11-20T16:25:35.616Z,2.10
2022-11-20T16:28:02.744Z,2.88
2022-11-20T16:30:29.897Z,2.90
2022-11-20T16:32:57.167Z,2.92
2022-11-20T16:35:26.337Z,2.63
2022-11-20T16:37:53.341Z,2.53
2022-11-20T16:40:20.271Z,3.20
2022-11-20T16:42:47.499Z,3.15
2022-11-20T16:45:17.762Z,2.83
2022-11-20T16:47:47.270Z,3.15
2022-11-20T16:50:14.334Z,3.20
2022-11-20T16:52:41.254Z,2.97
2022-11-20T16:55:08.579Z,3.53
2022-11-20T16:57:37.926Z,3.83
2022-11-20T17:00:05.486Z,3.92
2022-11-20T17:02:35.278Z,3.72
2022-11-20T17:05:02.424Z,3.63
2022-11-20T17:07:29.720Z,3.13
2022-11-20T17:09:56.774Z,3.67
2022-11-20T17:12:23.840Z,3.20
2022-11-20T17:14:50.992Z,3.60
2022-11-20T17:17:18.229Z,3.60
2022-11-20T17:19:45.443Z,3.40
2022-11-20T17:22:12.452Z,2.92
2022-11-20T17:24:39.719Z,2.78
2022-11-20T17:27:07.122Z,3.00
2022-11-20T17:29:39.198Z,3.38
2022-11-20T17:32:09.082Z,3.17
2022-11-20T17:34:36.067Z,3.05
2022-11-20T17:37:03.367Z,2.90
2022-11-20T17:39:30.301Z,3.63
2022-11-20T17:42:16.121Z,3.33
2022-11-20T17:44:44.173Z,3.08
2022-11-20T17:47:11.312Z,2.88
2022-11-20T17:49:38.437Z,3.58
2022-11-20T17:52:05.666Z,4.57
2022-11-20T17:54:33.313Z,4.00
2022-11-20T17:57:18.804Z,3.53
2022-11-20T17:59:45.941Z,3.28
2022-11-20T18:02:13.083Z,3.72
2022-11-20T18:04:40.192Z,4.15
2022-11-20T18:07:07.614Z,2.95
2022-11-20T18:09:34.857Z,2.92
2022-11-20T18:12:02.006Z,2.15
2022-11-20T18:14:32.460Z,2.25
2022-11-20T18:17:03.893Z,2.38
2022-11-20T18:19:37.614Z,2.45
2022-11-20T18:22:08.959Z,1.67
2022-11-20T18:24:36.796Z,1.85
2022-11-20T18:27:05.766Z,2.22
2022-11-20T18:29:33.355Z,1.88
2022-11-20T18:32:01.112Z,1.13
2022-11-20T18:34:28.486Z,1.40
2022-11-20T18:36:55.625Z,1.83
2022-11-20T18:39:23.793Z,1.88
2022-11-20T18:42:09.814Z,1.65
2022-11-20T18:44:53.770Z,1.20
2022-11-20T18:47:21.450Z,1.55
2022-11-20T18:49:52.427Z,1.10
2022-11-20T18:52:26.598Z,1.27
2022-11-20T18:54:54.654Z,0.93
2022-11-20T18:57:24.351Z,1.30
2022-11-20T18:59:51.595Z,1.40
2022-11-20T19:02:20.567Z,1.50
2022-11-20T19:04:47.888Z,1.33
2022-11-20T19:07:16.052Z,1.70
2022-11-20T19:09:45.077Z,1.50
2022-11-20T19:12:13.532Z,1.48
2022-11-20T19:14:41.057Z,1.83
2022-11-20T19:17:08.712Z,1.60
2022-11-20T19:19:35.876Z,2.40
2022-11-20T19:22:04.254Z,1.83
2022-11-20T19:24:31.525Z,1.70
2022-11-20T19:26:58.832Z,2.00
2022-11-20T19:29:27.078Z,1.85
2022-11-20T19:31:54.341Z,1.77
2022-11-20T19:34:21.375Z,2.60
2022-11-20T19:36:48.640Z,1.90
2022-11-20T19:39:15.894Z,2.97
2022-11-20T19:41:43.309Z,2.85
2022-11-20T19:44:11.716Z,2.00
2022-11-20T19:46:39.685Z,2.03
2022-11-20T19:49:10.376Z,2.88
2022-11-20T19:51:40.051Z,3.30
2022-11-20T19:54:07.369Z,3.03
2022-11-20T19:56:35.023Z,2.88
2022-11-20T19:59:02.540Z,3.50
2022-11-20T20:01:31.675Z,2.80
2022-11-20T20:04:05.277Z,2.80
2022-11-20T20:06:35.432Z,3.47
2022-11-20T20:09:06.914Z,3.70
2022-11-20T20:11:35.115Z,3.60
2022-11-20T20:14:07.345Z,4.50
2022-11-20T20:16:35.258Z,4.65
2022-11-20T20:19:04.374Z,3.95
2022-11-20T20:21:32.956Z,4.20
2022-11-20T20:24:00.850Z,3.35
2022-11-20T20:26:30.145Z,3.88
2022-11-20T20:28:57.587Z,3.35
2022-11-20T20:31:27.691Z,3.83
2022-11-20T20:33:55.412Z,3.05
2022-11-20T20:36:24.330Z,3.22
2022-11-20T20:38:56.003Z,3.53
2022-11-20T20:41:24.938Z,3.72
2022-11-20T20:44:11.538Z,3.45
2022-11-20T20:46:38.817Z,3.90
2022-11-20T20:49:06.267Z,4.28
2022-11-20T20:51:33.213Z,3.13
2022-11-20T20:54:00.518Z,4.10
2022-11-20T20:56:27.512Z,4.38
2022-11-20T20:58:54.741Z,4.15
2022-11-20T21:01:22.979Z,3.50
2022-11-20T21:03:50.042Z,3.40
2022-11-20T21:06:17.188Z,4.60
2022-11-20T21:08:44.764Z,3.65
2022-11-20T21:11:14.752Z,3.95
2022-11-20T21:13:43.557Z,3.70
2022-11-20T21:16:11.683Z,4.38
2022-11-20T21:18:38.871Z,4.35
2022-11-20T21:21:30.141Z,3.85
2022-11-20T21:23:57.352Z,3.75
2022-11-20T21:26:24.507Z,4.22
2022-11-20T21:28:51.650Z,4.55
2022-11-20T21:31:25.957Z,4.60
2022-11-20T21:33:55.242Z,4.30
2022-11-20T21:36:24.684Z,3.38
2022-11-20T21:38:54.806Z,4.43
2022-11-20T21:41:22.890Z,3.75
2022-11-20T21:44:16.261Z,4.80
2022-11-20T21:46:41.897Z,3.85
2022-11-20T21:49:10.511Z,3.83
2022-11-20T21:51:37.963Z,3.78
2022-11-20T21:54:05.169Z,4.22
2022-11-20T21:56:32.880Z,3.13
2022-11-20T21:59:00.069Z,4.15
2022-11-20T22:01:31.140Z,3.38
2022-11-20T22:04:01.329Z,4.63
2022-11-20T22:06:33.852Z,3.80
2022-11-20T22:09:02.246Z,3.72
2022-11-20T22:11:29.615Z,3.85
2022-11-20T22:14:15.393Z,4.22
2022-11-20T22:16:42.509Z,2.80
2022-11-20T22:19:09.804Z,3.67
2022-11-20T22:21:39.460Z,3.90
2022-11-20T22:24:06.552Z,3.75
2022-11-20T22:26:40.212Z,3.78
2022-11-20T22:29:08.920Z,3.60
2022-11-20T22:31:35.820Z,4.20
2022-11-20T22:34:02.859Z,3.42
2022-11-20T22:36:31.492Z,4.18
2022-11-20T22:38:59.624Z,4.20
2022-11-20T22:41:28.303Z,4.50
2022-11-20T22:43:56.959Z,3.50
2022-11-20T22:46:25.295Z,3.95
2022-11-20T22:48:54.698Z,4.30
2022-11-20T22:51:24.719Z,4.13
2022-11-20T22:53:52.586Z,4.32
2022-11-20T22:56:20.529Z,3.58
2022-11-20T22:58:50.117Z,3.63
2022-11-20T23:01:21.178Z,4.63
2022-11-20T23:03:50.233Z,3.65
2022-11-20T23:06:18.648Z,3.45
2022-11-20T23:08:46.615Z,3.88
2022-11-20T23:11:16.698Z,3.97
2022-11-20T23:13:44.791Z,3.92
2022-11-20T23:16:17.836Z,3.88
2022-11-20T23:18:45.858Z,3.30
2022-11-20T23:21:16.857Z,2.72
2022-11-20T23:23:47.533Z,3.47
2022-11-20T23:26:16.220Z,3.33
2022-11-20T23:28:43.714Z,3.05
2022-11-20T23:31:12.558Z,4.00
2022-11-20T23:33:41.895Z,2.83
2022-11-20T23:36:09.411Z,3.15
2022-11-20T23:38:36.563Z,2.67
2022-11-20T23:41:04.420Z,3.03
2022-11-20T23:43:31.811Z,2.88
2022-11-20T23:46:00.149Z,3.33
2022-11-20T23:48:35.874Z,2.70
2022-11-20T23:51:04.115Z,2.92
2022-11-20T23:53:31.312Z,3.28
2022-11-20T23:56:01.337Z,2.40
2022-11-20T23:58:38.681Z,2.65
